Terminal Aerodrome Forecast
Issued by NWS Midland/Odessa, TX

Home | Current Version | Previous Version | Text Only | Print | Product List | Glossary On
Versions: 1 2 3 4 5 6 7 8 9 10 11 12 13 14 15 16 17 18 19 20 21 22 23
000
FTUS44 KMAF 270557 AAB
TAFMAF
TAF AMD
KMAF 270557Z 2706/2806 17013KT P6SM FEW250
     FM271500 22022G32KT P6SM SKC
     FM280200 21012KT P6SM FEW200=

USA.gov is the U.S. government's official web portal to all federal, state and local government web resources and services.